Time;durP1;ratioP1;P1;durP2;ratioP2;P2;SDS_P1;SDS_P2;PMS_P1;PMS_P2;Temp;Humidity;BMP_temperature;BMP_pressure;BME280_temperature;BME280_humidity;BME280_pressure;Samples;Min_cycle;Max_cycle;Signal;HPM_P1;HPM_P2
2021/12/31 00:02:23;;;;;;;3.35;2.38;;;;;;;18.99;50.01;100066.88;5132287;28;20130;-55
2021/12/31 00:04:49;;;;;;;2.65;1.90;;;;;;;18.98;49.98;100066.09;5132073;27;20054;-55
2021/12/31 00:07:15;;;;;;;3.75;2.40;;;;;;;18.97;49.90;100058.94;5131945;28;20051;-55
2021/12/31 00:09:41;;;;;;;3.63;2.40;;;;;;;18.97;49.97;100058.94;5132085;27;20039;-55
2021/12/31 00:12:10;;;;;;;3.55;2.38;;;;;;;19.00;49.78;100060.19;5131678;28;20407;-55
2021/12/31 00:14:38;;;;;;;3.78;2.30;;;;;;;19.00;49.65;100067.69;5131954;27;20036;-55
2021/12/31 00:17:05;;;;;;;3.22;2.08;;;;;;;19.01;49.69;100067.38;5131961;27;20086;-55
2021/12/31 00:19:33;;;;;;;3.20;2.03;;;;;;;19.01;49.61;100055.47;5131963;27;20530;-55
2021/12/31 00:22:06;;;;;;;2.90;1.95;;;;;;;19.00;49.68;100068.50;5131836;27;20483;-55
2021/12/31 00:24:31;;;;;;;3.08;2.15;;;;;;;18.99;49.54;100066.88;5131792;27;20057;-55
2021/12/31 00:26:57;;;;;;;3.88;2.30;;;;;;;19.00;49.51;100076.00;5131577;28;20433;-55
2021/12/31 00:29:22;;;;;;;3.17;2.15;;;;;;;18.99;49.52;100069.66;5131673;28;20043;-55
2021/12/31 00:31:48;;;;;;;2.83;1.95;;;;;;;19.00;49.52;100068.50;5131731;28;20039;-55
2021/12/31 00:34:13;;;;;;;3.08;1.95;;;;;;;18.99;49.45;100072.44;5131839;28;20047;-55
2021/12/31 00:36:45;;;;;;;3.53;2.03;;;;;;;18.98;49.44;100073.59;5131653;28;20047;-55
2021/12/31 00:39:14;;;;;;;2.72;1.80;;;;;;;19.00;49.31;100078.78;5131699;27;20583;-55
2021/12/31 00:41:40;;;;;;;3.10;1.70;;;;;;;18.99;49.35;100075.19;5130241;27;20036;-55
2021/12/31 00:44:06;;;;;;;3.13;1.73;;;;;;;18.99;49.27;100075.19;5131401;27;20496;-55
2021/12/31 00:46:32;;;;;;;3.47;1.92;;;;;;;18.98;49.23;100079.13;5131449;27;20560;-55
2021/12/31 00:48:58;;;;;;;3.45;1.67;;;;;;;18.98;49.10;100071.63;5131474;27;20165;-55
2021/12/31 00:51:24;;;;;;;2.65;1.80;;;;;;;18.98;49.15;100066.09;5131322;27;20091;-55
2021/12/31 00:53:50;;;;;;;2.53;1.73;;;;;;;18.96;49.12;100065.63;5131418;27;20050;-55
2021/12/31 00:56:16;;;;;;;3.13;2.00;;;;;;;18.97;49.01;100069.22;5131316;28;20043;-55
2021/12/31 00:58:41;;;;;;;2.88;1.90;;;;;;;18.97;49.04;100075.56;5131300;27;20055;-55
2021/12/31 01:01:06;;;;;;;3.33;2.00;;;;;;;18.98;48.98;100070.81;5131186;28;20122;-55
2021/12/31 01:03:32;;;;;;;3.03;2.00;;;;;;;18.98;49.01;100065.28;5131082;28;20043;-55
2021/12/31 01:05:57;;;;;;;3.25;2.10;;;;;;;18.99;48.94;100075.19;5131125;28;20059;-55
2021/12/31 01:08:23;;;;;;;3.85;2.17;;;;;;;18.97;48.87;100071.97;5131100;28;20081;-55
2021/12/31 01:10:48;;;;;;;3.33;2.13;;;;;;;18.97;48.92;100077.53;5131038;28;20059;-55
2021/12/31 01:13:24;;;;;;;3.47;2.08;;;;;;;18.98;48.79;100073.59;5131087;27;20039;-55
2021/12/31 01:15:50;;;;;;;3.42;2.17;;;;;;;18.97;48.74;100077.53;5131041;27;20036;-55
2021/12/31 01:18:18;;;;;;;3.00;1.85;;;;;;;18.99;48.75;100086.28;5130891;28;20039;-55
2021/12/31 01:20:44;;;;;;;3.53;1.75;;;;;;;18.98;48.70;100082.72;5130904;27;20171;-55
2021/12/31 01:23:10;;;;;;;4.13;1.95;;;;;;;18.97;48.68;100086.66;5130927;27;20130;-55
2021/12/31 01:25:36;;;;;;;3.42;2.28;;;;;;;18.98;48.75;100084.69;5130844;28;20045;-55
2021/12/31 01:28:02;;;;;;;3.00;1.90;;;;;;;18.99;48.69;100083.53;5130867;27;20043;-55
2021/12/31 01:30:27;;;;;;;3.40;2.20;;;;;;;18.99;48.54;100100.16;5130743;28;20069;-55
2021/12/31 01:32:55;;;;;;;4.55;2.35;;;;;;;19.01;48.59;100097.06;5130670;28;20041;-55
2021/12/31 01:35:20;;;;;;;3.17;2.00;;;;;;;19.01;48.60;100089.56;5130596;27;20047;-55
2021/12/31 01:37:45;;;;;;;3.10;2.22;;;;;;;19.00;48.62;100084.31;5130607;28;20043;-55
2021/12/31 01:40:12;;;;;;;2.72;1.77;;;;;;;18.98;48.59;100090.22;5130786;28;20046;-55
2021/12/31 01:42:38;;;;;;;3.50;2.10;;;;;;;18.96;48.57;100084.22;5130708;27;20066;-55
2021/12/31 01:45:12;;;;;;;3.20;2.20;;;;;;;19.00;48.53;100095.41;5130911;27;20051;-55
2021/12/31 01:50:33;;;;;;;3.10;2.00;;;;;;;18.98;48.58;100102.13;5120901;28;20079;-55
2021/12/31 01:52:59;;;;;;;3.40;2.13;;;;;;;18.97;48.42;100096.94;5132189;27;20514;-55
2021/12/31 01:55:29;;;;;;;3.00;2.22;;;;;;;18.93;48.49;100102.38;5133991;27;20047;-55
2021/12/31 01:57:55;;;;;;;3.72;2.45;;;;;;;18.93;48.50;100099.59;5134181;27;20051;-55
2021/12/31 02:00:22;;;;;;;4.82;2.60;;;;;;;19.09;48.26;100102.47;5134300;27;20039;-55
2021/12/31 02:02:48;;;;;;;3.10;1.95;;;;;;;20.44;45.46;100097.47;5133777;27;20092;-55
2021/12/31 02:05:14;;;;;;;3.60;2.25;;;;;;;20.47;45.15;100101.50;5134037;27;20058;-55
2021/12/31 02:07:40;;;;;;;2.72;1.80;;;;;;;20.20;45.50;100101.13;5134014;27;20051;-55
2021/12/31 02:10:08;;;;;;;2.90;2.00;;;;;;;19.95;45.96;100096.84;5133974;27;20104;-55
2021/12/31 02:12:38;;;;;;;3.42;2.15;;;;;;;19.76;46.47;100100.22;5133841;27;20035;-55
2021/12/31 02:15:04;;;;;;;3.15;2.00;;;;;;;19.63;46.88;100093.91;5133872;27;20046;-55
2021/12/31 02:17:29;;;;;;;3.42;2.00;;;;;;;19.50;47.20;100093.09;5133848;27;20051;-55
2021/12/31 02:20:07;;;;;;;3.28;1.92;;;;;;;19.39;47.40;100089.19;5132552;28;20091;-55
2021/12/31 02:22:40;;;;;;;3.53;1.98;;;;;;;19.33;47.45;100103.63;5133744;27;20054;-55
2021/12/31 02:25:07;;;;;;;3.63;2.20;;;;;;;19.25;47.64;100091.50;5133741;27;20039;-55
2021/12/31 02:27:37;;;;;;;2.92;2.00;;;;;;;19.21;47.58;100104.44;5133673;27;20396;-55
2021/12/31 02:30:04;;;;;;;3.00;1.67;;;;;;;19.18;47.79;100102.38;5133762;27;20051;-55
2021/12/31 02:32:30;;;;;;;2.95;1.90;;;;;;;19.15;47.91;100103.06;5133416;27;20132;-55
2021/12/31 02:34:55;;;;;;;3.47;1.98;;;;;;;19.12;47.94;100093.47;5133597;28;20120;-55
2021/12/31 02:37:21;;;;;;;2.97;1.88;;;;;;;19.07;48.02;100090.91;5133445;27;20418;-55
2021/12/31 02:39:46;;;;;;;3.47;2.05;;;;;;;19.10;47.97;100103.28;5133342;28;20047;-55
2021/12/31 02:42:12;;;;;;;3.03;2.08;;;;;;;19.08;47.93;100098.09;5133415;27;20043;-55
2021/12/31 02:44:38;;;;;;;3.20;2.00;;;;;;;19.08;47.97;100098.09;5133468;27;20054;-55
2021/12/31 02:47:06;;;;;;;3.35;2.28;;;;;;;19.04;47.93;100091.63;5133626;27;20124;-55
2021/12/31 02:49:41;;;;;;;3.72;2.08;;;;;;;19.05;47.90;100086.88;5133444;27;20184;-55
2021/12/31 02:52:11;;;;;;;3.60;2.22;;;;;;;19.02;48.02;100093.13;5133445;27;20039;-55
2021/12/31 02:54:41;;;;;;;3.05;1.90;;;;;;;19.04;47.91;100097.16;5133272;28;20503;-55
2021/12/31 02:57:07;;;;;;;2.70;1.67;;;;;;;19.01;48.17;100095.09;5133141;27;20422;-55
2021/12/31 02:59:35;;;;;;;3.38;1.80;;;;;;;19.01;48.02;100097.88;5133246;27;20521;-55
2021/12/31 03:02:03;;;;;;;2.97;1.90;;;;;;;19.03;47.91;100097.50;5133218;27;20066;-55
2021/12/31 03:04:30;;;;;;;3.47;2.10;;;;;;;19.00;47.90;100096.22;5131971;27;20055;-64
2021/12/31 03:06:57;;;;;;;3.50;2.05;;;;;;;19.00;47.79;100096.22;5132838;27;20416;-64
2021/12/31 03:09:25;;;;;;;5.57;1.92;;;;;;;19.01;47.85;100094.28;5133036;27;20066;-64
2021/12/31 03:11:56;;;;;;;3.50;1.80;;;;;;;18.99;47.73;100091.84;5132829;27;20078;-64
2021/12/31 03:14:23;;;;;;;3.03;1.92;;;;;;;18.99;47.73;100094.59;5133097;27;20518;-64
2021/12/31 03:16:48;;;;;;;2.78;1.80;;;;;;;19.00;47.73;100101.78;5132849;27;20415;-64
2021/12/31 03:19:15;;;;;;;2.67;1.60;;;;;;;19.00;47.59;100090.69;5132907;28;20506;-64
2021/12/31 03:21:40;;;;;;;3.25;1.85;;;;;;;19.00;47.66;100089.88;5132767;27;20388;-64
2021/12/31 03:24:06;;;;;;;3.05;1.83;;;;;;;19.01;47.59;100086.78;5132723;27;20054;-64
2021/12/31 03:26:34;;;;;;;2.75;1.80;;;;;;;19.01;47.58;100083.19;5132633;28;20051;-64
2021/12/31 03:29:00;;;;;;;3.33;1.80;;;;;;;19.00;47.62;100082.34;5132656;27;20043;-64
2021/12/31 03:31:25;;;;;;;2.80;1.80;;;;;;;18.98;47.67;100082.72;5132747;27;20042;-55
2021/12/31 03:33:51;;;;;;;3.00;1.83;;;;;;;18.99;47.59;100083.53;5132619;27;20047;-55
2021/12/31 03:36:16;;;;;;;3.00;1.67;;;;;;;18.98;47.47;100081.91;5132707;28;20043;-55
2021/12/31 03:38:42;;;;;;;2.38;1.50;;;;;;;18.98;47.46;100081.91;5132513;28;20047;-55
2021/12/31 03:41:07;;;;;;;3.13;1.80;;;;;;;18.98;47.48;100079.13;5132488;28;20070;-55
2021/12/31 03:43:33;;;;;;;2.22;1.40;;;;;;;18.98;47.37;100091.03;5132653;28;20043;-55
2021/12/31 03:45:58;;;;;;;2.83;1.70;;;;;;;18.98;47.42;100087.44;5132428;28;20039;-55
2021/12/31 03:48:23;;;;;;;2.80;1.63;;;;;;;18.94;47.36;100084.56;5132288;28;20046;-55
2021/12/31 03:50:49;;;;;;;3.10;1.80;;;;;;;18.94;47.43;100084.56;5132515;28;20040;-55
2021/12/31 03:53:15;;;;;;;2.13;1.33;;;;;;;18.95;47.22;100082.63;5132438;27;20050;-55
2021/12/31 03:55:42;;;;;;;2.05;1.40;;;;;;;18.97;47.32;100088.63;5132486;27;20043;-55
2021/12/31 03:58:07;;;;;;;2.35;1.58;;;;;;;18.96;47.31;100090.56;5132322;27;20115;-55
2021/12/31 04:00:33;;;;;;;2.10;1.40;;;;;;;18.97;47.22;100083.06;5132393;27;20077;-55
2021/12/31 04:03:08;;;;;;;2.50;1.40;;;;;;;18.96;47.19;100085.03;5132287;27;20050;-55
2021/12/31 04:05:35;;;;;;;2.53;1.70;;;;;;;18.95;47.20;100083.41;5132393;27;20461;-56
2021/12/31 04:08:01;;;;;;;2.47;1.40;;;;;;;18.95;47.09;100077.06;5132271;27;20388;-55
2021/12/31 04:10:28;;;;;;;2.60;1.67;;;;;;;18.96;47.20;100075.91;5131774;28;20201;-55
2021/12/31 04:12:55;;;;;;;2.15;1.25;;;;;;;18.95;47.14;100085.38;5131776;27;20051;-55
2021/12/31 04:15:20;;;;;;;1.95;1.25;;;;;;;18.94;47.07;100078.22;5131843;27;20439;-55
2021/12/31 04:17:46;;;;;;;2.38;1.48;;;;;;;18.93;47.09;100080.19;5132005;27;20597;-55
2021/12/31 04:20:20;;;;;;;2.58;1.30;;;;;;;18.94;47.12;100075.44;5131920;28;20042;-55
2021/12/31 04:22:53;;;;;;;2.50;1.40;;;;;;;18.94;47.12;100078.22;5131707;27;20043;-55
2021/12/31 04:25:19;;;;;;;2.33;1.30;;;;;;;18.94;46.98;100067.13;5131547;27;20396;-55
2021/12/31 04:27:44;;;;;;;2.95;1.40;;;;;;;18.93;46.88;100068.25;5131744;27;20054;-55
2021/12/31 04:30:11;;;;;;;2.50;1.45;;;;;;;18.95;46.88;100077.06;5131739;28;20039;-55
2021/12/31 04:32:36;;;;;;;3.30;1.65;;;;;;;18.93;47.00;100074.66;5131372;28;20388;-55
2021/12/31 04:35:02;;;;;;;2.60;1.50;;;;;;;18.94;46.92;100079.03;5131202;28;20058;-55
2021/12/31 04:37:27;;;;;;;1.92;1.30;;;;;;;18.94;46.87;100075.44;5131711;27;20501;-55
2021/12/31 04:39:53;;;;;;;2.30;1.27;;;;;;;18.93;46.89;100076.59;5131512;28;20070;-64
2021/12/31 04:42:19;;;;;;;2.33;1.58;;;;;;;18.92;46.89;100075.78;5131572;27;20051;-64
2021/12/31 04:44:44;;;;;;;2.60;1.60;;;;;;;18.92;46.89;100072.19;5131677;27;20088;-55
2021/12/31 04:47:10;;;;;;;2.13;1.50;;;;;;;18.94;46.86;100081.00;5131250;28;20039;-55
2021/12/31 04:49:35;;;;;;;2.92;1.48;;;;;;;18.94;46.77;100090.13;5131343;27;20912;-55
2021/12/31 04:52:01;;;;;;;2.10;1.30;;;;;;;18.95;46.77;100085.38;5131346;28;20092;-55
2021/12/31 04:54:26;;;;;;;2.10;1.30;;;;;;;18.95;46.72;100074.28;5131209;28;20050;-55
2021/12/31 04:56:54;;;;;;;2.38;1.40;;;;;;;18.95;46.62;100077.06;5131042;28;20049;-55
2021/12/31 04:59:20;;;;;;;2.28;1.30;;;;;;;18.94;46.59;100073.50;5129554;28;20061;-55
2021/12/31 05:01:47;;;;;;;3.63;1.45;;;;;;;18.95;46.70;100072.31;5130577;27;20100;-64
2021/12/31 05:04:13;;;;;;;2.33;1.40;;;;;;;18.96;46.34;100067.59;5131423;27;20108;-64
2021/12/31 05:06:38;;;;;;;2.38;1.42;;;;;;;18.98;46.44;100070.81;5131331;27;20433;-64
2021/12/31 05:09:04;;;;;;;2.40;1.38;;;;;;;18.95;46.47;100068.75;5131288;28;20059;-64
2021/12/31 05:11:29;;;;;;;2.13;1.20;;;;;;;18.98;46.40;100062.50;5131015;28;20043;-55
2021/12/31 05:13:55;;;;;;;2.88;1.40;;;;;;;18.98;46.27;100062.50;5131085;28;20444;-55
2021/12/31 05:16:20;;;;;;;2.30;1.40;;;;;;;19.00;46.27;100062.97;5130857;28;20507;-55
2021/12/31 05:18:45;;;;;;;2.10;1.30;;;;;;;19.01;46.24;100070.16;5131025;28;20502;-55
2021/12/31 05:21:11;;;;;;;4.22;1.23;;;;;;;19.02;46.23;100068.97;5131006;28;20050;-55
2021/12/31 05:23:36;;;;;;;3.10;1.30;;;;;;;18.98;46.20;100060.53;5131031;27;20131;-55
2021/12/31 05:26:01;;;;;;;2.30;1.30;;;;;;;19.01;46.24;100053.50;5130932;28;20050;-55
2021/12/31 05:28:27;;;;;;;2.10;1.30;;;;;;;19.03;46.23;100064.25;5129947;27;20043;-55
2021/12/31 05:30:52;;;;;;;2.33;1.33;;;;;;;19.03;45.97;100076.16;5130707;27;20043;-55
2021/12/31 05:33:18;;;;;;;1.95;1.10;;;;;;;19.04;46.10;100077.75;5124977;28;20445;-55
2021/12/31 05:35:43;;;;;;;2.45;1.40;;;;;;;19.04;46.01;100080.53;5109992;28;20036;-55
2021/12/31 05:38:09;;;;;;;1.85;1.10;;;;;;;19.04;46.04;100088.84;5110290;28;20043;-55
2021/12/31 05:40:34;;;;;;;2.33;1.30;;;;;;;19.06;45.73;100088.50;5110281;28;20447;-55
2021/12/31 05:43:00;;;;;;;1.90;1.10;;;;;;;19.05;45.98;100087.69;5110085;28;20540;-55
2021/12/31 05:45:26;;;;;;;3.22;1.25;;;;;;;19.03;45.87;100084.47;5110102;28;20052;-55
2021/12/31 05:47:51;;;;;;;2.33;1.25;;;;;;;19.03;45.72;100089.19;5110030;28;20404;-55
2021/12/31 05:50:28;;;;;;;1.92;1.23;;;;;;;19.03;45.87;100083.66;5109788;28;20043;-55
2021/12/31 05:52:57;;;;;;;2.15;1.35;;;;;;;19.03;45.87;100090.00;5110037;28;20054;-55
2021/12/31 05:55:24;;;;;;;2.35;1.30;;;;;;;19.00;45.81;100071.28;5109959;28;20048;-55
2021/12/31 05:57:49;;;;;;;2.00;1.20;;;;;;;19.03;45.78;100073.38;5109950;28;20044;-55
2021/12/31 06:00:16;;;;;;;2.03;1.23;;;;;;;19.00;45.77;100068.50;5109991;28;20050;-55
2021/12/31 06:02:41;;;;;;;2.38;1.42;;;;;;;19.02;45.91;100070.94;5109916;28;20047;-55
2021/12/31 06:05:07;;;;;;;2.20;1.33;;;;;;;19.00;46.00;100071.28;5109721;28;20419;-55
2021/12/31 06:07:32;;;;;;;1.85;1.17;;;;;;;19.01;45.88;100072.09;5109855;28;20412;-55
2021/12/31 06:09:58;;;;;;;1.98;1.30;;;;;;;19.01;45.89;100064.59;5109855;28;20046;-55
2021/12/31 06:12:24;;;;;;;2.05;1.20;;;;;;;19.00;45.83;100076.00;5109694;28;20118;-55
2021/12/31 06:14:52;;;;;;;2.10;1.30;;;;;;;19.01;45.78;100080.44;5109611;28;20048;-55
2021/12/31 06:17:22;;;;;;;2.08;1.13;;;;;;;18.96;45.77;100081.44;5109606;28;20196;-55
2021/12/31 06:19:48;;;;;;;2.40;1.30;;;;;;;18.94;45.93;100081.00;5109608;28;20142;-55
2021/12/31 06:22:13;;;;;;;1.60;1.10;;;;;;;18.96;45.76;100082.25;5109568;28;20123;-55
2021/12/31 06:24:41;;;;;;;1.88;1.23;;;;;;;18.96;45.64;100079.50;5109591;28;20403;-55
2021/12/31 06:27:07;;;;;;;1.85;1.10;;;;;;;18.96;45.66;100081.44;5109549;28;20411;-55
2021/12/31 06:29:32;;;;;;;2.28;1.10;;;;;;;18.95;45.57;100086.19;5109689;28;20546;-55
2021/12/31 06:31:58;;;;;;;2.42;1.48;;;;;;;18.94;45.57;100081.81;5109667;28;20067;-55
2021/12/31 06:34:23;;;;;;;2.42;1.35;;;;;;;19.07;45.31;100088.13;5109363;28;20408;-55
2021/12/31 06:36:48;;;;;;;1.80;1.30;;;;;;;19.81;43.96;100086.13;5109432;28;20087;-55
2021/12/31 06:39:14;;;;;;;2.13;1.23;;;;;;;19.87;43.33;100081.94;5111431;28;20103;-55
2021/12/31 06:41:39;;;;;;;2.03;1.30;;;;;;;19.71;43.81;100073.53;5094715;28;20044;-55
2021/12/31 06:44:05;;;;;;;2.40;1.30;;;;;;;19.56;44.03;100067.88;5112976;28;20522;-55
2021/12/31 06:46:30;;;;;;;3.70;1.20;;;;;;;20.18;43.12;100070.13;5112905;28;20052;-55
2021/12/31 06:48:56;;;;;;;2.00;1.20;;;;;;;21.22;40.63;100070.84;5112699;28;20099;-55
2021/12/31 06:51:21;;;;;;;2.20;1.27;;;;;;;20.88;41.35;100066.81;5112733;28;20052;-55
2021/12/31 06:53:47;;;;;;;1.85;1.30;;;;;;;20.52;42.02;100070.66;5112864;28;20052;-55
2021/12/31 06:56:12;;;;;;;4.43;1.45;;;;;;;20.21;42.57;100072.16;5112646;28;20120;-55
2021/12/31 06:58:38;;;;;;;2.35;1.38;;;;;;;20.00;43.06;100077.13;5112756;28;20039;-64
2021/12/31 07:01:03;;;;;;;2.20;1.20;;;;;;;19.82;43.41;100086.91;5112499;28;20039;-64
2021/12/31 07:03:28;;;;;;;1.65;1.17;;;;;;;19.69;43.66;100091.69;5112569;28;20130;-64
2021/12/31 07:05:54;;;;;;;2.33;1.30;;;;;;;19.57;43.85;100092.50;5112535;28;20408;-64
2021/12/31 07:08:19;;;;;;;2.45;1.48;;;;;;;19.46;43.97;100091.38;5112616;28;20055;-64
2021/12/31 07:10:45;;;;;;;1.58;1.00;;;;;;;19.38;44.15;100083.97;5112364;28;20074;-64
2021/12/31 07:13:11;;;;;;;1.90;1.23;;;;;;;19.33;44.23;100086.97;5112551;28;20044;-64
2021/12/31 07:15:45;;;;;;;1.95;1.30;;;;;;;19.27;44.38;100085.59;5112432;28;20510;-64
2021/12/31 07:18:11;;;;;;;2.17;1.30;;;;;;;19.24;44.37;100090.69;5112271;28;20079;-64
2021/12/31 07:20:37;;;;;;;1.95;1.27;;;;;;;19.20;44.49;100095.31;5112282;28;20067;-64
2021/12/31 07:23:08;;;;;;;1.42;0.95;;;;;;;19.15;44.64;100087.25;5112390;28;20039;-64
2021/12/31 07:25:34;;;;;;;2.22;1.33;;;;;;;19.15;44.58;100087.25;5112526;28;20522;-64
2021/12/31 07:28:00;;;;;;;1.45;0.93;;;;;;;19.12;44.66;100085.16;5112025;28;20044;-65
2021/12/31 07:30:26;;;;;;;2.08;1.20;;;;;;;19.09;44.69;100093.38;5112275;28;20046;-55
2021/12/31 07:32:51;;;;;;;2.33;1.38;;;;;;;19.08;44.55;100095.31;5111974;28;20473;-55
2021/12/31 07:35:17;;;;;;;1.90;1.15;;;;;;;19.06;44.66;100089.28;5112211;28;20529;-55
2021/12/31 07:37:42;;;;;;;1.60;1.10;;;;;;;19.05;44.69;100098.78;5112117;28;20040;-55
2021/12/31 07:40:10;;;;;;;2.08;1.30;;;;;;;19.03;44.71;100094.75;5112333;28;20044;-55
2021/12/31 07:42:36;;;;;;;2.45;1.40;;;;;;;19.03;44.73;100100.28;5112131;28;20039;-55
2021/12/31 07:45:03;;;;;;;1.92;1.17;;;;;;;19.00;44.66;100101.78;5111961;28;20059;-55
2021/12/31 07:47:28;;;;;;;2.20;1.30;;;;;;;19.02;44.66;100112.53;5111728;28;20048;-55
2021/12/31 07:49:54;;;;;;;2.40;1.40;;;;;;;19.01;44.55;100110.91;5111473;28;20150;-55
2021/12/31 07:52:19;;;;;;;1.90;1.30;;;;;;;18.97;44.59;100108.81;5111971;28;20043;-55
2021/12/31 07:54:45;;;;;;;2.47;1.45;;;;;;;19.01;44.61;100108.97;5111842;28;20051;-55
2021/12/31 07:57:10;;;;;;;2.05;1.35;;;;;;;19.00;44.57;100121.19;5111902;28;20035;-63
2021/12/31 07:59:36;;;;;;;2.00;1.30;;;;;;;18.97;44.69;100124.66;5111530;28;20062;-63
2021/12/31 08:02:01;;;;;;;2.50;1.50;;;;;;;18.95;44.64;100138.06;5111532;28;20071;-64
2021/12/31 08:04:26;;;;;;;2.45;1.52;;;;;;;18.94;44.69;100133.66;5111838;28;20491;-64
2021/12/31 08:06:52;;;;;;;2.58;1.42;;;;;;;18.96;44.48;100128.59;5111497;28;20059;-64
2021/12/31 08:09:17;;;;;;;1.58;1.10;;;;;;;18.95;44.61;100141.63;5111491;28;20042;-55
2021/12/31 08:11:42;;;;;;;2.60;1.42;;;;;;;18.96;44.65;100139.66;5111593;28;20411;-55
2021/12/31 08:14:08;;;;;;;2.10;1.33;;;;;;;18.93;44.62;100141.19;5111695;28;20039;-55
2021/12/31 08:16:33;;;;;;;1.73;1.30;;;;;;;18.94;44.76;100150.31;5111490;28;20158;-55
2021/12/31 08:18:59;;;;;;;2.20;1.35;;;;;;;18.93;44.79;100152.25;5111454;28;20040;-55
2021/12/31 08:21:24;;;;;;;2.10;1.30;;;;;;;18.92;44.75;100145.06;5111523;28;20070;-55
2021/12/31 08:23:50;;;;;;;2.88;1.70;;;;;;;18.92;44.85;100156.16;5111185;28;20052;-64
2021/12/31 08:26:15;;;;;;;2.10;1.40;;;;;;;18.91;44.83;100153.75;5111182;28;20036;-55
2021/12/31 08:28:41;;;;;;;2.22;1.40;;;;;;;18.86;44.66;100151.19;5111242;28;20059;-55
2021/12/31 08:31:06;;;;;;;2.58;1.40;;;;;;;18.91;44.88;100150.97;5111160;28;20105;-55
2021/12/31 08:33:32;;;;;;;2.38;1.60;;;;;;;18.91;44.93;100143.47;5111158;28;20039;-55
2021/12/31 08:35:58;;;;;;;2.33;1.33;;;;;;;18.92;44.87;100147.84;5111383;28;20043;-55
2021/12/31 08:38:24;;;;;;;2.50;1.50;;;;;;;18.90;44.94;100154.91;5111194;28;20047;-55
2021/12/31 08:40:49;;;;;;;2.42;1.60;;;;;;;18.92;44.87;100156.16;5111041;28;20089;-55
2021/12/31 08:43:15;;;;;;;3.10;1.52;;;;;;;18.91;44.84;100162.88;5111110;28;20097;-55
2021/12/31 08:45:40;;;;;;;2.33;1.30;;;;;;;18.90;44.85;100166.78;5110954;28;20488;-55
2021/12/31 08:48:06;;;;;;;2.40;1.60;;;;;;;18.93;44.77;100162.50;5110796;28;20043;-55
2021/12/31 08:50:32;;;;;;;2.55;1.50;;;;;;;18.92;44.87;100166.44;5111008;28;20050;-55
2021/12/31 08:52:57;;;;;;;2.20;1.40;;;;;;;18.91;44.90;100165.63;5110847;28;20062;-55
2021/12/31 08:55:23;;;;;;;2.10;1.45;;;;;;;18.92;44.85;100172.00;5110829;28;20047;-55
2021/12/31 08:57:50;;;;;;;2.17;1.40;;;;;;;18.89;44.81;100167.94;5111002;28;20031;-55
2021/12/31 09:00:16;;;;;;;2.15;1.48;;;;;;;18.91;44.80;100164.84;5110737;28;20089;-55
2021/12/31 09:02:42;;;;;;;1.77;1.20;;;;;;;18.92;44.85;100172.00;5109524;28;20123;-55
2021/12/31 09:05:08;;;;;;;3.35;1.50;;;;;;;18.93;44.85;100173.59;5110739;28;20127;-55
2021/12/31 09:07:34;;;;;;;2.38;1.38;;;;;;;18.93;44.97;100176.38;5110524;28;20126;-55
2021/12/31 09:10:00;;;;;;;3.08;1.77;;;;;;;18.93;44.96;100173.59;5110554;28;20169;-55
2021/12/31 09:12:25;;;;;;;2.40;1.50;;;;;;;18.93;45.03;100174.44;5110372;28;20426;-64
2021/12/31 09:14:51;;;;;;;2.83;1.52;;;;;;;18.97;45.24;100171.78;5110610;28;20388;-64
2021/12/31 09:17:17;;;;;;;2.38;1.35;;;;;;;18.95;45.01;100176.88;5110464;28;20039;-64
2021/12/31 09:19:42;;;;;;;2.40;1.48;;;;;;;18.96;44.91;100178.47;5110343;28;20044;-64
2021/12/31 09:22:09;;;;;;;2.67;1.50;;;;;;;18.96;45.08;100182.06;5110313;28;20040;-63
2021/12/31 09:24:35;;;;;;;1.77;1.10;;;;;;;18.97;45.02;100193.97;5110339;28;20461;-64
2021/12/31 09:27:00;;;;;;;2.20;1.40;;;;;;;18.97;45.04;100191.19;5110390;28;20503;-64
2021/12/31 09:29:25;;;;;;;2.85;1.63;;;;;;;19.00;45.09;100181.34;5110369;28;20255;-64
2021/12/31 09:31:51;;;;;;;3.22;1.50;;;;;;;18.98;45.15;100190.84;5110398;28;20074;-64
2021/12/31 09:34:17;;;;;;;2.85;1.60;;;;;;;19.00;45.14;100193.25;5110237;28;20054;-64
2021/12/31 09:36:43;;;;;;;2.22;1.33;;;;;;;19.02;45.32;100202.06;5110234;28;20044;-64
2021/12/31 09:39:08;;;;;;;2.83;1.55;;;;;;;19.00;45.14;100195.22;5110235;28;20043;-64
2021/12/31 09:41:34;;;;;;;2.50;1.70;;;;;;;19.02;45.10;100213.16;5110449;28;20240;-65
2021/12/31 09:44:00;;;;;;;2.65;1.52;;;;;;;19.01;45.32;100203.22;5110570;28;20127;-65
2021/12/31 09:46:26;;;;;;;2.50;1.55;;;;;;;19.03;45.14;100211.19;5110425;28;20039;-56
2021/12/31 09:48:51;;;;;;;2.92;1.55;;;;;;;19.02;45.31;100204.84;5110326;28;20066;-55
2021/12/31 09:51:17;;;;;;;2.33;1.38;;;;;;;19.04;45.27;100202.53;5110071;28;20043;-55
2021/12/31 09:53:43;;;;;;;2.33;1.40;;;;;;;19.03;45.12;100206.44;5110050;28;20400;-55
2021/12/31 09:56:08;;;;;;;3.55;1.50;;;;;;;19.02;45.21;100206.81;5109979;28;20560;-55
2021/12/31 09:58:35;;;;;;;2.40;1.60;;;;;;;19.02;45.17;100207.59;5109795;28;20047;-55
2021/12/31 10:01:02;;;;;;;2.40;1.50;;;;;;;19.01;45.46;100208.75;5109792;28;20050;-55
2021/12/31 10:03:32;;;;;;;2.22;1.30;;;;;;;19.02;45.41;100215.13;5109999;28;20048;-55
2021/12/31 10:06:06;;;;;;;2.53;1.48;;;;;;;19.02;45.39;100220.66;5109905;28;20075;-55
2021/12/31 10:08:42;;;;;;;1.88;1.17;;;;;;;19.00;45.40;100217.41;5109739;28;20078;-55
2021/12/31 10:11:22;;;;;;;2.30;1.50;;;;;;;19.00;45.35;100212.66;5109778;28;20131;-55
2021/12/31 10:13:57;;;;;;;1.95;1.33;;;;;;;19.01;45.35;100200.44;5110947;28;20044;-55
2021/12/31 10:16:22;;;;;;;2.28;1.48;;;;;;;19.02;45.43;100199.28;5113322;28;20158;-55
2021/12/31 10:18:48;;;;;;;2.08;1.30;;;;;;;19.02;45.40;100192.94;5113154;28;20126;-55
2021/12/31 10:21:19;;;;;;;2.28;1.30;;;;;;;19.01;45.32;100202.41;5113109;28;20455;-55
2021/12/31 10:23:45;;;;;;;2.60;1.30;;;;;;;19.04;45.61;100199.75;5113322;28;20047;-55
2021/12/31 10:26:17;;;;;;;2.22;1.38;;;;;;;19.04;45.54;100204.47;5113448;28;20040;-55
2021/12/31 10:28:57;;;;;;;2.10;1.50;;;;;;;19.02;45.75;100204.03;5113511;28;20456;-64
2021/12/31 10:31:23;;;;;;;2.13;1.30;;;;;;;19.04;45.60;100199.75;5113253;28;20043;-64
2021/12/31 10:33:49;;;;;;;2.40;1.50;;;;;;;19.03;45.58;100200.91;5113005;28;20100;-64
2021/12/31 10:36:35;;;;;;;2.72;1.45;;;;;;;19.03;45.59;100197.31;5094755;28;20134;-64
2021/12/31 10:39:16;;;;;;;2.28;1.05;;;;;;;19.01;45.61;100194.09;5113040;28;20047;-64
2021/12/31 10:41:42;;;;;;;2.17;1.50;;;;;;;19.02;45.68;100187.41;5113044;28;20673;-64
2021/12/31 10:44:07;;;;;;;2.63;1.45;;;;;;;19.03;45.64;100194.56;5112966;28;20138;-64
2021/12/31 10:46:33;;;;;;;2.17;1.33;;;;;;;19.01;45.54;100197.69;5112671;28;20416;-63
2021/12/31 10:49:06;;;;;;;2.63;1.40;;;;;;;19.01;45.68;100199.63;5112916;28;20407;-64
2021/12/31 10:51:38;;;;;;;2.35;1.30;;;;;;;19.02;45.67;100206.81;5112952;28;20036;-64
2021/12/31 10:54:16;;;;;;;2.63;1.50;;;;;;;18.99;45.54;100199.97;5112997;28;20043;-64
2021/12/31 10:56:41;;;;;;;2.83;1.50;;;;;;;18.99;45.70;100199.97;5112780;28;20047;-63
2021/12/31 10:59:07;;;;;;;2.17;1.20;;;;;;;19.00;45.72;100198.00;5112522;28;20422;-64
2021/12/31 11:01:32;;;;;;;3.08;1.30;;;;;;;19.00;45.80;100198.00;5112425;28;20061;-55
2021/12/31 11:03:58;;;;;;;2.17;1.27;;;;;;;18.98;45.90;100192.81;5112387;28;20047;-55
2021/12/31 11:06:23;;;;;;;2.72;1.63;;;;;;;18.99;45.81;100191.66;5112466;28;20036;-55
2021/12/31 11:08:50;;;;;;;2.30;1.25;;;;;;;18.99;45.99;100177.78;5112448;28;20046;-55
2021/12/31 11:11:19;;;;;;;2.58;1.60;;;;;;;18.97;45.96;100180.09;5112289;28;20048;-55
2021/12/31 11:13:45;;;;;;;2.10;1.40;;;;;;;18.98;45.97;100182.50;5112290;28;20462;-55
2021/12/31 11:16:13;;;;;;;3.35;1.50;;;;;;;18.97;46.14;100175.34;5112152;28;20068;-55
2021/12/31 11:18:40;;;;;;;2.35;1.20;;;;;;;19.00;46.17;100179.41;5112385;28;20093;-55
2021/12/31 11:21:09;;;;;;;2.95;1.40;;;;;;;18.99;46.15;100169.47;5112328;28;20109;-55
2021/12/31 11:23:36;;;;;;;3.15;1.50;;;;;;;18.98;46.19;100165.88;5112324;28;20047;-55
2021/12/31 11:26:07;;;;;;;2.58;1.48;;;;;;;18.95;46.18;100144.41;5111185;28;20128;-55